Time;durP1;ratioP1;P1;durP2;ratioP2;P2;SDS_P1;SDS_P2;PMS_P1;PMS_P2;Temp;Humidity;BMP_temperature;BMP_pressure;BME280_temperature;BME280_humidity;BME280_pressure;Samples;Min_cycle;Max_cycle;Signal;HPM_P1;HPM_P2
2023/01/13 00:01:25;;;;;;;16.70;15.23;;;;;;;21.40;33.12;95332.59;6173545;28;104074;-79
2023/01/13 00:04:30;;;;;;;15.07;13.80;;;;;;;21.28;33.37;95323.50;6167237;28;103496;-79
2023/01/13 00:07:33;;;;;;;14.13;13.03;;;;;;;21.42;33.16;95346.41;6173230;28;103129;-79
2023/01/13 00:10:38;;;;;;;14.57;13.37;;;;;;;21.05;32.88;95293.31;6173410;28;103099;-79
2023/01/13 00:13:41;;;;;;;13.93;12.73;;;;;;;21.22;32.93;95312.16;6169430;28;103254;-79
2023/01/13 00:16:44;;;;;;;13.50;12.40;;;;;;;21.42;33.46;95345.59;6168133;28;103351;-78
2023/01/13 00:19:47;;;;;;;13.87;12.63;;;;;;;21.23;33.40;95321.72;6172853;28;104967;-79
2023/01/13 00:22:51;;;;;;;13.17;12.07;;;;;;;21.40;33.29;95342.44;6172545;28;104408;-78
2023/01/13 00:25:57;;;;;;;12.70;11.60;;;;;;;21.41;32.96;95344.81;6159530;28;103109;-78
2023/01/13 00:29:01;;;;;;;12.87;11.83;;;;;;;21.41;33.43;95344.81;6172654;28;103017;-78
2023/01/13 00:32:05;;;;;;;12.00;11.00;;;;;;;21.42;33.47;95343.72;6172372;28;104907;-78
2023/01/13 00:35:09;;;;;;;11.70;10.70;;;;;;;21.41;32.92;95346.69;6172514;28;103561;-78
2023/01/13 00:38:12;;;;;;;11.67;10.67;;;;;;;21.38;33.32;95345.41;6164771;28;102999;-78
2023/01/13 00:41:19;;;;;;;10.53;9.63;;;;;;;21.23;33.13;95318.28;6172067;28;102795;-78
2023/01/13 00:44:21;;;;;;;10.90;9.97;;;;;;;21.40;33.38;95343.25;6164173;28;102708;-78
2023/01/13 00:47:24;;;;;;;10.60;9.70;;;;;;;21.18;33.36;95308.50;6169466;28;103294;-78
2023/01/13 00:50:29;;;;;;;10.40;9.57;;;;;;;21.41;33.08;95346.69;6160808;28;106308;-79
2023/01/13 00:53:35;;;;;;;10.50;9.60;;;;;;;21.42;32.90;95349.06;6172153;28;104441;-78
2023/01/13 00:56:39;;;;;;;9.90;8.90;;;;;;;21.41;33.13;95336.81;6178621;28;106550;-79
2023/01/13 00:59:43;;;;;;;9.50;8.80;;;;;;;21.42;33.02;95341.06;6166961;28;103470;-79
2023/01/13 01:02:46;;;;;;;9.40;8.70;;;;;;;21.41;33.31;95333.38;6171939;28;103195;-79
2023/01/13 01:05:50;;;;;;;8.90;8.20;;;;;;;21.37;33.53;95327.06;6172200;28;104930;-79
2023/01/13 01:08:54;;;;;;;7.83;7.23;;;;;;;21.20;33.14;95296.47;6171807;28;103315;-79
2023/01/13 01:11:59;;;;;;;9.10;8.40;;;;;;;21.41;33.14;95328.84;6164195;28;103262;-79
2023/01/13 01:15:04;;;;;;;8.00;7.40;;;;;;;21.16;32.84;95286.69;6171459;28;103884;-79
2023/01/13 01:18:11;;;;;;;8.20;7.50;;;;;;;21.23;33.20;95297.75;6170355;28;103056;-80
2023/01/13 01:21:14;;;;;;;7.60;7.00;;;;;;;21.31;33.33;95313.03;6171579;28;102966;-79
2023/01/13 01:24:18;;;;;;;7.77;7.17;;;;;;;21.33;33.01;95310.88;6164323;28;104129;-79
2023/01/13 01:27:23;;;;;;;7.53;6.93;;;;;;;21.12;33.09;95283.84;6171708;28;103364;-80
2023/01/13 01:30:26;;;;;;;7.20;6.60;;;;;;;21.47;33.01;95324.22;6171369;28;102673;-79
2023/01/13 01:33:30;;;;;;;7.70;7.10;;;;;;;21.52;33.14;95319.59;6166976;28;105215;-80
2023/01/13 01:36:35;;;;;;;7.07;6.50;;;;;;;21.59;32.92;95318.41;6170930;28;103363;-79
2023/01/13 01:39:38;;;;;;;6.53;6.03;;;;;;;21.62;32.87;95312.47;6170999;28;103931;-80
2023/01/13 01:46:04;;;;;;;7.20;6.70;;;;;;;21.51;32.85;95293.25;6153243;28;103678;-79
2023/01/13 01:49:17;;;;;;;6.80;6.30;;;;;;;21.52;32.74;95292.97;6169809;28;103847;-80
2023/01/13 01:52:25;;;;;;;6.43;5.93;;;;;;;21.61;32.70;95301.03;6168380;28;103484;-80
2023/01/13 01:55:33;;;;;;;6.67;6.07;;;;;;;21.61;32.49;95308.25;6169703;28;102865;-79
2023/01/13 01:58:45;;;;;;;6.13;5.73;;;;;;;21.61;32.35;95303.72;6147719;28;105024;-80
2023/01/13 02:01:48;;;;;;;6.00;5.50;;;;;;;21.59;32.59;95308.53;6170787;28;103315;-79
2023/01/13 02:04:55;;;;;;;5.83;5.43;;;;;;;21.59;32.60;95310.41;6171059;28;105694;-80
2023/01/13 02:08:00;;;;;;;5.77;5.37;;;;;;;21.19;32.73;95252.31;6163137;28;103267;-79
2023/01/13 02:11:04;;;;;;;5.97;5.57;;;;;;;21.59;32.49;95305.09;6171130;28;102629;-79
2023/01/13 02:14:08;;;;;;;5.60;5.20;;;;;;;21.56;32.46;95309.13;6171205;28;106545;-80
2023/01/13 02:17:24;;;;;;;5.80;5.40;;;;;;;21.00;32.93;95216.19;6169881;28;102527;-79
2023/01/13 02:20:59;;;;;;;5.70;5.20;;;;;;;21.53;32.56;95299.09;6163981;28;105630;-79
2023/01/13 02:28:12;;;;;;;5.20;4.80;;;;;;;21.53;32.49;95296.41;6157643;28;104315;-80
2023/01/13 02:34:43;;;;;;;5.20;4.80;;;;;;;21.50;32.80;95295.13;6170503;28;106744;-79
2023/01/13 02:37:47;;;;;;;4.83;4.53;;;;;;;21.53;32.54;95301.75;6170168;28;103566;-79
2023/01/13 02:40:58;;;;;;;5.10;4.70;;;;;;;21.27;32.34;95263.34;6169533;28;103111;-79
2023/01/13 02:44:06;;;;;;;5.20;4.80;;;;;;;21.49;32.49;95298.84;6167994;28;102875;-80
2023/01/13 02:47:17;;;;;;;4.50;4.20;;;;;;;21.17;32.64;95251.03;6169936;28;103068;-79
2023/01/13 02:50:24;;;;;;;4.40;4.10;;;;;;;21.50;32.46;95305.75;6170261;28;103351;-79
2023/01/13 02:53:33;;;;;;;4.70;4.40;;;;;;;21.46;32.79;95299.47;6163949;28;105365;-79
2023/01/13 02:56:42;;;;;;;4.37;4.07;;;;;;;21.47;32.74;95289.59;6152193;28;102615;-79
2023/01/13 02:59:45;;;;;;;4.60;4.20;;;;;;;21.50;32.69;95300.44;6171306;28;103009;-80
2023/01/13 03:02:51;;;;;;;4.87;4.57;;;;;;;21.43;32.73;95293.94;6169672;28;104242;-79
2023/01/13 03:06:00;;;;;;;4.83;4.43;;;;;;;21.49;32.76;95290.88;6161190;28;106295;-79
2023/01/13 03:09:08;;;;;;;4.33;3.93;;;;;;;21.29;32.64;95266.50;6168752;28;103417;-79
2023/01/13 03:12:17;;;;;;;4.17;3.87;;;;;;;21.51;32.55;95302.03;6169948;28;102846;-79
2023/01/13 03:15:29;;;;;;;4.40;4.00;;;;;;;21.51;32.18;95302.03;6166091;28;103280;-79
2023/01/13 03:18:42;;;;;;;4.10;3.80;;;;;;;21.36;32.51;95273.03;6164790;28;103970;-79
2023/01/13 03:21:51;;;;;;;4.30;4.00;;;;;;;21.43;32.29;95284.06;6168911;28;103276;-80
2023/01/13 03:25:01;;;;;;;3.80;3.50;;;;;;;21.47;32.50;95290.38;6166530;28;102894;-79
2023/01/13 03:28:10;;;;;;;3.93;3.63;;;;;;;21.52;32.35;95298.28;6159534;28;104380;-79
2023/01/13 03:31:21;;;;;;;4.07;3.77;;;;;;;21.43;32.30;95286.75;6167782;28;102857;-79
2023/01/13 03:34:31;;;;;;;3.60;3.30;;;;;;;21.53;32.87;95304.41;6167842;28;103837;-79
2023/01/13 03:37:38;;;;;;;3.57;3.30;;;;;;;21.47;32.77;95300.25;6166458;28;104173;-79
2023/01/13 03:40:47;;;;;;;3.60;3.30;;;;;;;21.52;32.29;95313.47;6161770;28;105034;-79
2023/01/13 03:47:20;;;;;;;3.53;3.33;;;;;;;21.53;32.66;95309.72;6156405;28;103150;-78
2023/01/13 03:50:34;;;;;;;3.97;3.67;;;;;;;21.37;32.16;95287.13;6162004;28;104268;-79
2023/01/13 03:53:40;;;;;;;3.67;3.40;;;;;;;21.44;32.36;95293.63;6168587;28;104531;-79
2023/01/13 03:56:47;;;;;;;3.43;3.20;;;;;;;21.55;32.37;95314.75;6167637;28;105229;-78
2023/01/13 03:59:55;;;;;;;3.40;3.20;;;;;;;21.54;32.30;95307.84;6168461;28;107212;-79
2023/01/13 04:03:05;;;;;;;3.40;3.10;;;;;;;21.51;32.58;95312.69;6161384;28;103607;-80
2023/01/13 04:06:16;;;;;;;3.10;2.90;;;;;;;21.54;32.22;95313.97;6167628;28;103106;-81
2023/01/13 04:09:27;;;;;;;3.00;2.80;;;;;;;21.54;32.42;95316.63;6169713;28;103136;-80
2023/01/13 04:16:01;;;;;;;3.23;3.03;;;;;;;21.55;32.64;95325.41;6150841;28;105034;-80
2023/01/13 04:19:04;;;;;;;3.30;3.10;;;;;;;21.38;32.41;95300.16;6169793;28;104104;-80
2023/01/13 04:22:10;;;;;;;2.83;2.63;;;;;;;21.54;32.27;95326.50;6168862;28;103062;-79
2023/01/13 04:25:13;;;;;;;3.23;3.03;;;;;;;21.55;32.30;95336.06;6161740;28;104832;-80
2023/01/13 04:28:18;;;;;;;4.00;3.70;;;;;;;21.38;32.70;95316.13;6169540;28;104058;-81
2023/01/13 04:31:21;;;;;;;10.07;9.47;;;;;;;21.45;32.85;95334.38;6151234;28;103670;-81
2023/01/13 04:34:24;;;;;;;11.30;10.50;;;;;;;21.25;32.86;95306.25;6163398;28;104346;-80
2023/01/13 04:37:31;;;;;;;13.63;12.67;;;;;;;21.40;32.82;95332.59;6160263;28;103572;-81
2023/01/13 04:40:35;;;;;;;14.13;13.10;;;;;;;21.33;32.95;95326.84;6171626;28;103266;-80
2023/01/13 04:43:38;;;;;;;13.87;12.87;;;;;;;21.26;32.78;95309.69;6173894;28;102841;-81
2023/01/13 04:46:42;;;;;;;14.43;13.50;;;;;;;21.39;33.04;95335.56;6166754;28;105109;-80
2023/01/13 04:49:46;;;;;;;13.63;12.73;;;;;;;21.21;32.86;95307.91;6173329;28;103527;-82
2023/01/13 04:52:52;;;;;;;15.37;14.00;;;;;;;21.36;33.20;95339.59;6171876;28;103192;-80
2023/01/13 04:55:55;;;;;;;15.23;14.00;;;;;;;21.20;32.89;95328.41;6172683;28;102855;-82
2023/01/13 04:58:58;;;;;;;13.20;12.23;;;;;;;21.17;32.71;95328.19;6162712;28;103220;-80
2023/01/13 05:02:02;;;;;;;11.93;10.93;;;;;;;21.00;32.53;95302.09;6172100;28;103232;-84
2023/01/13 05:05:06;;;;;;;10.33;9.43;;;;;;;21.26;32.83;95337.09;6161843;28;105977;-81
2023/01/13 05:08:10;;;;;;;10.17;9.27;;;;;;;21.20;32.85;95327.63;6172864;28;102774;-82
2023/01/13 05:18:07;;;;;;;9.63;7.63;;;;;;;21.44;33.34;95343.44;6102682;28;104083;-81
2023/01/13 05:25:20;;;;;;;7.37;6.77;;;;;;;21.35;33.20;95335.34;6139343;28;103131;-80
2023/01/13 05:27:57;;;;;;;6.40;5.80;;;;;;;21.51;33.19;95349.19;6148542;28;102659;-80
2023/01/13 05:31:01;;;;;;;6.87;6.17;;;;;;;21.42;32.85;95324.31;6146888;28;103443;-80
2023/01/13 05:34:05;;;;;;;6.13;5.57;;;;;;;21.44;32.74;95330.91;6139834;28;103037;-79
2023/01/13 05:37:09;;;;;;;6.30;5.67;;;;;;;21.57;32.92;95352.53;6147219;28;106354;-80
2023/01/13 05:43:38;;;;;;;6.60;5.67;;;;;;;21.59;32.54;95355.69;6141487;28;103295;-80
2023/01/13 05:46:41;;;;;;;5.60;4.70;;;;;;;21.57;32.91;95357.84;6140143;28;103481;-79
2023/01/13 05:49:44;;;;;;;5.33;4.10;;;;;;;21.59;32.58;95355.69;6141504;28;103389;-79
2023/01/13 05:52:48;;;;;;;5.00;4.60;;;;;;;21.61;32.76;95359.63;6142336;28;102960;-79
2023/01/13 05:55:53;;;;;;;4.90;4.30;;;;;;;21.61;32.78;95359.63;6134053;28;103127;-80
2023/01/13 05:58:56;;;;;;;4.43;4.03;;;;;;;21.61;32.57;95358.84;6142772;28;103488;-81
2023/01/13 06:02:00;;;;;;;5.33;4.43;;;;;;;21.61;32.57;95364.97;6142080;28;102875;-80
2023/01/13 06:05:03;;;;;;;4.00;3.70;;;;;;;21.35;32.88;95326.56;6142545;28;103945;-80
2023/01/13 06:08:07;;;;;;;4.30;3.90;;;;;;;21.49;32.77;95353.97;6134710;28;104474;-80
2023/01/13 06:11:12;;;;;;;4.27;3.87;;;;;;;21.59;32.90;95367.13;6142327;28;103295;-80
2023/01/13 06:14:15;;;;;;;4.27;3.60;;;;;;;21.17;32.70;95307.72;6141662;28;102977;-78
2023/01/13 06:17:18;;;;;;;5.73;4.10;;;;;;;21.44;32.13;95348.75;6138460;28;103138;-78
2023/01/13 06:20:21;;;;;;;4.00;3.60;;;;;;;21.55;32.70;95370.69;6136086;28;105184;-79
2023/01/13 06:23:25;;;;;;;3.60;3.30;;;;;;;21.54;32.82;95369.09;6141794;28;103167;-79
2023/01/13 06:26:31;;;;;;;4.60;3.80;;;;;;;21.50;32.66;95372.31;6140986;28;103217;-79
2023/01/13 06:29:35;;;;;;;3.60;3.30;;;;;;;21.44;32.56;95360.19;6133567;28;103002;-79
2023/01/13 06:32:41;;;;;;;3.70;3.40;;;;;;;21.45;32.71;95377.75;6140774;28;103211;-78
2023/01/13 06:35:49;;;;;;;3.47;3.17;;;;;;;21.38;32.95;95366.72;6142221;28;103535;-79
2023/01/13 06:38:56;;;;;;;3.90;3.60;;;;;;;21.41;32.54;95379.44;6141870;28;103280;-78
2023/01/13 06:45:26;;;;;;;3.60;3.30;;;;;;;21.23;32.77;95358.19;6141542;28;103078;-79
2023/01/13 06:48:33;;;;;;;3.20;2.90;;;;;;;21.35;33.12;95382.47;6142159;28;104777;-79
2023/01/13 06:51:37;;;;;;;3.40;3.10;;;;;;;21.23;32.67;95369.63;6137646;28;104971;-79
2023/01/13 06:54:40;;;;;;;4.07;3.43;;;;;;;21.26;33.11;95374.34;6138104;28;103182;-79
2023/01/13 06:57:53;;;;;;;3.20;2.90;;;;;;;21.30;33.02;95377.22;6141573;28;104860;-79
2023/01/13 07:01:00;;;;;;;3.07;2.87;;;;;;;21.30;33.01;95385.22;6141625;28;105872;-79
2023/01/13 07:04:04;;;;;;;3.87;3.57;;;;;;;21.03;32.82;95345.97;6130590;28;103766;-80
2023/01/13 07:07:07;;;;;;;3.00;2.80;;;;;;;21.29;32.76;95384.41;6141556;28;104402;-80
2023/01/13 07:10:13;;;;;;;3.43;3.13;;;;;;;21.27;33.20;95381.25;6141649;28;106651;-80
2023/01/13 07:16:44;;;;;;;3.33;3.13;;;;;;;21.29;33.02;95378.31;6060636;28;102993;-80
2023/01/13 07:19:47;;;;;;;3.50;3.20;;;;;;;21.22;32.68;95370.72;6141131;28;102719;-80
2023/01/13 07:22:55;;;;;;;3.23;2.93;;;;;;;21.01;33.06;95332.19;6140758;28;104911;-79
2023/01/13 07:25:59;;;;;;;2.70;2.50;;;;;;;19.98;32.58;95183.28;6133627;28;102828;-80
2023/01/13 07:29:04;;;;;;;3.03;2.83;;;;;;;21.35;32.63;95380.59;6140969;28;103273;-78
2023/01/13 07:32:07;;;;;;;3.10;2.80;;;;;;;21.33;32.88;95374.75;6140839;28;104043;-78
2023/01/13 07:35:10;;;;;;;3.70;3.30;;;;;;;21.40;32.56;95383.19;6140300;28;105870;-79
2023/01/13 07:38:13;;;;;;;3.60;3.20;;;;;;;21.42;33.31;95377.56;6132725;28;104572;-78
2023/01/13 07:44:39;;;;;;;4.40;3.50;;;;;;;21.31;33.52;95365.50;6141737;28;105111;-79
2023/01/13 07:47:42;;;;;;;4.00;3.70;;;;;;;21.39;33.41;95368.28;6141159;28;105260;-78
2023/01/13 07:50:46;;;;;;;4.33;3.60;;;;;;;21.31;33.79;95355.63;6132013;28;104661;-79
2023/01/13 07:53:49;;;;;;;4.10;3.80;;;;;;;21.39;33.98;95362.97;6141163;28;107214;-78
2023/01/13 07:56:52;;;;;;;3.87;3.60;;;;;;;21.49;33.86;95373.41;6141196;28;102752;-78
2023/01/13 07:59:57;;;;;;;3.80;3.43;;;;;;;21.14;33.64;95328.78;6136395;28;103763;-79
2023/01/13 08:03:00;;;;;;;4.20;3.80;;;;;;;21.24;33.36;95341.94;6139925;28;102765;-79
2023/01/13 08:06:04;;;;;;;4.43;4.03;;;;;;;21.53;33.91;95389.63;6139565;28;102950;-80
2023/01/13 08:09:08;;;;;;;3.73;3.37;;;;;;;21.58;33.90;95392.19;6139719;28;103178;-79
2023/01/13 08:15:33;;;;;;;3.93;3.17;;;;;;;21.59;33.36;95388.44;6143424;28;103459;-80
2023/01/13 08:18:38;;;;;;;3.23;3.03;;;;;;;21.62;33.66;95397.69;6144338;28;103291;-79
2023/01/13 08:21:41;;;;;;;3.70;3.33;;;;;;;21.40;33.51;95356.56;6144427;28;102929;-80
2023/01/13 08:24:45;;;;;;;3.20;2.93;;;;;;;21.61;33.24;95385.47;6135880;28;104558;-79
2023/01/13 08:27:49;;;;;;;3.73;3.43;;;;;;;21.54;33.45;95363.78;6145960;28;103000;-80
2023/01/13 08:30:54;;;;;;;3.37;3.07;;;;;;;21.75;33.32;95386.28;6144581;28;103030;-78
2023/01/13 08:33:57;;;;;;;3.50;3.20;;;;;;;21.76;33.17;95390.53;6138061;28;104720;-78
2023/01/13 08:37:01;;;;;;;3.70;3.27;;;;;;;21.60;33.23;95359.94;6141626;28;104578;-78
2023/01/13 08:40:07;;;;;;;3.80;3.40;;;;;;;21.82;32.75;95384.03;6143576;28;103415;-79
2023/01/13 08:43:11;;;;;;;8.83;3.13;;;;;;;21.54;32.86;95337.16;6143506;28;103290;-79
2023/01/13 08:46:15;;;;;;;3.43;3.20;;;;;;;21.84;33.18;95383.75;6135385;28;106002;-79
2023/01/13 08:49:19;;;;;;;3.37;3.07;;;;;;;21.84;32.84;95387.19;6143840;28;102790;-79
2023/01/13 08:52:22;;;;;;;3.57;3.27;;;;;;;21.64;33.00;95337.72;6144348;28;103336;-79
2023/01/13 08:55:26;;;;;;;3.77;3.47;;;;;;;21.68;32.66;95354.72;6143941;28;103301;-79
2023/01/13 08:58:29;;;;;;;3.00;2.80;;;;;;;21.69;32.89;95350.19;6135774;28;107440;-79
2023/01/13 09:01:33;;;;;;;3.50;3.20;;;;;;;21.66;32.79;95356.88;6143254;28;103085;-79
2023/01/13 09:04:37;;;;;;;3.03;2.83;;;;;;;21.70;32.86;95365.06;6142566;28;103558;-79
2023/01/13 09:07:40;;;;;;;3.40;3.10;;;;;;;21.72;32.75;95371.69;6139437;28;103266;-80
2023/01/13 09:10:43;;;;;;;3.07;2.87;;;;;;;21.78;32.91;95375.03;6138642;28;103590;-80
2023/01/13 09:13:45;;;;;;;3.30;3.00;;;;;;;21.76;33.11;95377.22;6125848;28;102787;-80
2023/01/13 09:16:50;;;;;;;3.07;2.83;;;;;;;21.67;32.81;95366.44;6142662;28;105411;-80
2023/01/13 09:19:53;;;;;;;2.73;2.53;;;;;;;21.72;32.65;95370.91;6135293;28;104659;-79
2023/01/13 09:22:56;;;;;;;2.70;2.50;;;;;;;21.68;33.07;95372.56;6144339;28;104870;-79
2023/01/13 09:26:00;;;;;;;3.03;2.83;;;;;;;21.69;32.83;95356.31;6146365;28;103057;-80
2023/01/13 09:29:03;;;;;;;2.87;2.67;;;;;;;21.58;33.03;95336.25;6143316;28;103201;-79
2023/01/13 09:32:14;;;;;;;3.00;2.80;;;;;;;21.75;32.82;95359.66;6133820;28;102795;-79
2023/01/13 09:35:17;;;;;;;2.97;2.77;;;;;;;21.76;33.01;95362.00;6143528;28;107348;-80
2023/01/13 09:38:20;;;;;;;3.07;2.87;;;;;;;21.54;33.04;95327.28;6141748;28;103714;-79
2023/01/13 09:44:53;;;;;;;3.53;3.23;;;;;;;21.61;32.56;95325.00;6138650;28;103336;-81
2023/01/13 09:48:06;;;;;;;2.50;2.30;;;;;;;21.81;32.57;95369.91;6143217;28;106128;-80
2023/01/13 09:51:19;;;;;;;2.80;2.60;;;;;;;21.45;32.71;95308.53;6144889;28;104092;-80
2023/01/13 09:54:31;;;;;;;2.53;2.33;;;;;;;21.83;32.69;95361.63;6134804;28;103841;-81
2023/01/13 09:57:38;;;;;;;3.23;2.93;;;;;;;21.77;33.00;95352.16;6143682;28;105310;-80
2023/01/13 10:00:46;;;;;;;2.60;2.40;;;;;;;21.83;32.72;95361.63;6143604;28;104982;-80
2023/01/13 10:03:51;;;;;;;2.27;2.07;;;;;;;21.84;32.44;95357.88;6142406;28;103439;-80
2023/01/13 10:06:59;;;;;;;2.70;2.50;;;;;;;21.84;32.77;95357.88;6132916;28;103342;-80
2023/01/13 10:10:05;;;;;;;2.60;2.40;;;;;;;21.83;32.91;95358.97;6141931;28;103218;-81
2023/01/13 10:13:23;;;;;;;2.50;2.30;;;;;;;21.81;32.56;95363.78;6143112;28;103073;-80
2023/01/13 10:16:40;;;;;;;2.40;2.20;;;;;;;21.59;32.55;95316.53;6134074;28;104382;-80
2023/01/13 10:19:51;;;;;;;2.83;2.60;;;;;;;21.69;32.49;95329.66;6143243;28;104949;-81
2023/01/13 10:23:06;;;;;;;2.97;2.77;;;;;;;21.83;32.52;95348.31;6142595;28;103339;-81
2023/01/13 10:26:25;;;;;;;2.40;2.20;;;;;;;21.79;32.68;95341.97;6142981;28;106735;-80
2023/01/13 10:29:30;;;;;;;2.80;2.50;;;;;;;21.78;32.92;95345.72;6136199;28;103862;-80
2023/01/13 10:32:34;;;;;;;2.70;2.50;;;;;;;21.79;32.70;95340.09;6142654;28;102654;-81
2023/01/13 10:35:57;;;;;;;2.50;2.30;;;;;;;21.76;32.76;95334.59;6144009;28;105042;-79
2023/01/13 10:39:09;;;;;;;2.50;2.30;;;;;;;21.76;32.85;95335.38;6135737;28;104435;-80
2023/01/13 10:42:14;;;;;;;2.60;2.40;;;;;;;21.75;32.58;95331.13;6141718;28;103107;-80
2023/01/13 10:45:25;;;;;;;2.90;2.70;;;;;;;21.76;33.07;95334.59;6142282;28;105380;-80
2023/01/13 10:48:39;;;;;;;2.23;2.03;;;;;;;21.72;32.68;95330.94;6143290;28;104134;-80
2023/01/13 10:51:47;;;;;;;2.30;2.20;;;;;;;21.73;32.91;95329.84;6134722;28;103143;-80
2023/01/13 10:54:52;;;;;;;2.60;2.40;;;;;;;21.72;32.59;95329.06;6141707;28;103024;-80
2023/01/13 10:57:56;;;;;;;2.17;2.03;;;;;;;21.51;32.81;95291.38;6142639;28;106615;-81
2023/01/13 11:01:03;;;;;;;2.57;2.37;;;;;;;21.41;32.69;95274.81;6138590;28;103027;-81
2023/01/13 11:04:27;;;;;;;2.40;2.20;;;;;;;21.55;33.06;95296.91;6137188;28;103290;-80
2023/01/13 11:07:35;;;;;;;2.30;2.10;;;;;;;21.72;32.57;95317.63;6141901;28;103150;-80
2023/01/13 11:10:45;;;;;;;2.00;1.87;;;;;;;21.73;32.49;95316.53;6142134;28;106285;-80
2023/01/13 11:17:23;;;;;;;2.47;2.27;;;;;;;21.55;33.10;95280.16;6141218;28;102630;-80
2023/01/13 11:20:35;;;;;;;2.30;2.10;;;;;;;21.65;32.98;95301.22;6142326;28;104211;-80
2023/01/13 11:23:47;;;;;;;2.30;2.20;;;;;;;21.69;32.85;95296.91;6137865;28;106373;-82
2023/01/13 11:26:57;;;;;;;2.60;2.40;;;;;;;21.69;33.01;95302.25;6136788;28;103129;-81
2023/01/13 11:30:08;;;;;;;2.57;2.37;;;;;;;21.61;32.88;95281.63;6141525;28;103389;-82
2023/01/13 11:33:29;;;;;;;1.93;1.80;;;;;;;21.37;32.67;95253.31;6141620;28;104232;-80
2023/01/13 11:36:37;;;;;;;2.00;1.90;;;;;;;21.63;32.67;95284.75;6132937;28;106221;-80
2023/01/13 11:39:52;;;;;;;1.90;1.80;;;;;;;21.44;32.85;95263.56;6141030;28;105414;-81
2023/01/13 11:43:01;;;;;;;1.77;1.67;;;;;;;21.51;32.80;95266.63;6141904;28;102617;-81
2023/01/13 11:46:06;;;;;;;2.60;2.40;;;;;;;21.67;32.89;95289.19;6141653;28;103599;-81
2023/01/13 11:49:23;;;;;;;2.60;2.33;;;;;;;21.56;32.70;95276.41;6135069;28;104221;-80
2023/01/13 11:52:40;;;;;;;1.93;1.80;;;;;;;21.67;32.66;95289.19;6146562;28;103199;-81
2023/01/13 11:55:54;;;;;;;2.70;2.37;;;;;;;21.67;32.79;95293.72;6146429;28;102949;-80
2023/01/13 11:59:19;;;;;;;2.27;2.07;;;;;;;21.66;32.78;95282.28;6138179;28;105543;-81
2023/01/13 12:02:43;;;;;;;2.17;1.80;;;;;;;21.67;32.67;95280.41;6145456;28;102709;-80
2023/01/13 12:06:09;;;;;;;2.40;2.20;;;;;;;21.48;32.89;95262.66;6145722;28;105027;-81
2023/01/13 12:09:40;;;;;;;1.70;1.53;;;;;;;21.38;32.69;95241.59;6142421;28;102780;-80
2023/01/13 12:12:51;;;;;;;2.10;1.90;;;;;;;21.66;32.79;95281.50;6144791;28;102998;-81
2023/01/13 12:16:22;;;;;;;1.73;1.63;;;;;;;21.65;32.94;95279.94;6144881;28;103179;-80
2023/01/13 12:19:26;;;;;;;2.17;1.97;;;;;;;21.65;32.43;95278.06;6145124;28;102891;-80
2023/01/13 12:22:32;;;;;;;2.20;1.93;;;;;;;21.58;32.68;95260.91;6136899;28;103335;-80
2023/01/13 12:25:43;;;;;;;2.13;1.73;;;;;;;21.65;32.58;95271.94;6145034;28;104893;-81
2023/01/13 12:28:51;;;;;;;1.77;1.67;;;;;;;21.66;32.62;95274.31;6145611;28;104351;-80
2023/01/13 12:31:55;;;;;;;1.80;1.70;;;;;;;21.31;32.64;95221.75;6141526;28;103377;-80
2023/01/13 12:35:08;;;;;;;2.03;1.83;;;;;;;21.68;32.41;95276.69;6140782;28;106890;-80
2023/01/13 12:38:19;;;;;;;2.27;2.07;;;;;;;21.66;32.67;95276.97;6144527;28;103266;-80
2023/01/13 12:41:33;;;;;;;1.90;1.80;;;;;;;21.59;32.65;95270.47;6145280;28;103092;-80
2023/01/13 12:44:36;;;;;;;1.90;1.80;;;;;;;21.55;32.47;95264.97;6135941;28;102921;-80
2023/01/13 12:47:42;;;;;;;2.07;1.87;;;;;;;21.44;32.39;95247.59;6144229;28;103452;-81
2023/01/13 12:50:59;;;;;;;1.80;1.70;;;;;;;21.41;32.77;95240.19;6126330;28;103067;-81
2023/01/13 12:54:05;;;;;;;1.87;1.77;;;;;;;21.67;32.85;95278.53;6144494;28;104083;-81
2023/01/13 12:57:20;;;;;;;2.10;1.90;;;;;;;21.67;32.64;95272.44;6136442;28;106315;-80
2023/01/13 13:00:32;;;;;;;2.20;2.00;;;;;;;21.49;32.72;95261.59;6143921;28;103980;-81
2023/01/13 13:03:36;;;;;;;1.80;1.70;;;;;;;21.66;32.81;95284.16;6144820;28;104360;-81
2023/01/13 13:06:43;;;;;;;2.27;2.00;;;;;;;21.47;32.67;95258.44;6136155;28;103340;-80
2023/01/13 13:09:52;;;;;;;1.80;1.67;;;;;;;21.61;32.80;95278.94;6145544;28;102616;-81
2023/01/13 13:16:46;;;;;;;1.70;1.60;;;;;;;21.64;33.08;95292.47;6144401;28;103855;-80
2023/01/13 13:19:51;;;;;;;2.03;1.93;;;;;;;21.65;33.00;95302.03;6136519;28;102961;-81
2023/01/13 13:22:54;;;;;;;1.73;1.63;;;;;;;21.66;32.92;95297.47;6143146;28;102898;-81
2023/01/13 13:26:03;;;;;;;2.00;1.90;;;;;;;21.57;32.73;95291.28;6143706;28;102969;-81
2023/01/13 13:29:28;;;;;;;1.67;1.57;;;;;;;21.43;32.76;95275.31;6138471;28;102918;-80
2023/01/13 13:32:59;;;;;;;1.80;1.70;;;;;;;21.64;32.54;95299.66;6143882;28;105112;-81
2023/01/13 13:36:14;;;;;;;1.70;1.60;;;;;;;21.61;32.67;95309.03;6143934;28;105168;-82
2023/01/13 13:49:49;;;;;;;1.93;1.80;;;;;;;20.58;32.70;95154.97;6144428;28;102769;-81
2023/01/13 13:52:58;;;;;;;1.80;1.70;;;;;;;21.50;32.77;95291.66;6135474;28;106421;-81
2023/01/13 13:56:04;;;;;;;2.20;2.00;;;;;;;21.59;32.54;95308.53;6143777;28;106020;-81
2023/01/13 13:59:10;;;;;;;2.00;1.90;;;;;;;21.22;32.54;95256.28;6142600;28;103265;-81
2023/01/13 14:02:20;;;;;;;2.27;2.07;;;;;;;21.58;32.94;95304.31;6143825;28;102894;-82
2023/01/13 14:05:27;;;;;;;1.80;1.70;;;;;;;21.48;32.82;95294.63;6137532;28;105378;-81
2023/01/13 14:08:33;;;;;;;2.10;1.90;;;;;;;21.60;32.47;95306.66;6143030;28;103129;-81
2023/01/13 14:11:36;;;;;;;2.10;2.00;;;;;;;21.60;32.72;95312.78;6143116;28;102999;-81
2023/01/13 14:14:43;;;;;;;2.47;2.27;;;;;;;21.57;32.81;95316.03;6134525;28;106139;-81
2023/01/13 14:17:47;;;;;;;1.97;1.87;;;;;;;21.58;32.83;95306.97;6143878;28;102803;-81
2023/01/13 14:21:14;;;;;;;1.97;1.80;;;;;;;21.60;32.89;95314.66;6142753;28;102839;-81
2023/01/13 14:24:19;;;;;;;2.10;1.90;;;;;;;;;;6143163;28;107517;-81
2023/01/13 14:27:26;;;;;;;2.00;1.90;;;;;;;21.31;32.43;95269.66;6132910;28;105290;-80
2023/01/13 14:30:29;;;;;;;1.83;1.73;;;;;;;21.50;32.85;95295.13;6125336;28;104321;-81
2023/01/13 14:33:37;;;;;;;2.10;1.90;;;;;;;21.42;32.39;95289.69;6143471;28;107087;-79
2023/01/13 14:36:42;;;;;;;2.10;2.00;;;;;;;21.40;32.60;95292.66;6139200;28;103083;-80
2023/01/13 14:39:45;;;;;;;2.03;1.83;;;;;;;21.56;32.78;95324.31;6137510;28;103322;-80
2023/01/13 14:42:57;;;;;;;2.10;2.00;;;;;;;21.56;32.38;95316.34;6141883;28;102785;-80
2023/01/13 14:46:02;;;;;;;2.30;2.10;;;;;;;21.58;32.37;95312.28;6142812;28;105456;-80
2023/01/13 14:49:05;;;;;;;2.03;1.93;;;;;;;21.24;32.85;95266.63;6136460;28;103383;-80
2023/01/13 14:52:16;;;;;;;2.30;2.10;;;;;;;21.55;32.60;95312.88;6143715;28;105448;-80
2023/01/13 14:55:29;;;;;;;2.17;2.00;;;;;;;21.43;32.76;95299.25;6143069;28;103640;-81
2023/01/13 14:58:32;;;;;;;1.90;1.80;;;;;;;21.54;32.44;95324.63;6141999;28;103411;-81
2023/01/13 15:01:38;;;;;;;2.67;2.07;;;;;;;21.30;32.78;95292.03;6133369;28;103744;-81
2023/01/13 15:04:41;;;;;;;1.80;1.70;;;;;;;21.45;32.76;95324.50;6141722;28;104998;-80
2023/01/13 15:07:52;;;;;;;2.03;1.93;;;;;;;20.99;32.76;95251.84;6141831;28;104251;-80
2023/01/13 15:10:58;;;;;;;3.00;2.30;;;;;;;21.43;32.42;95326.66;6137821;28;104373;-80
2023/01/13 15:14:10;;;;;;;2.47;2.10;;;;;;;21.25;32.87;95298.25;6137015;28;102718;-80
2023/01/13 15:17:17;;;;;;;2.40;2.20;;;;;;;21.38;32.91;95328.66;6141292;28;103415;-79
2023/01/13 15:20:22;;;;;;;4.17;2.67;;;;;;;21.11;32.65;95281.47;6141817;28;102749;-80
2023/01/13 15:23:26;;;;;;;2.43;2.23;;;;;;;21.17;32.45;95283.78;6133714;28;103626;-80
2023/01/13 15:26:30;;;;;;;2.90;2.70;;;;;;;21.38;32.68;95326.78;6142108;28;106642;-79
2023/01/13 15:29:33;;;;;;;2.47;2.27;;;;;;;21.45;32.64;95331.69;6140672;28;106345;-79
2023/01/13 15:32:36;;;;;;;2.80;2.60;;;;;;;21.45;32.97;95337.81;6141932;28;103844;-79
2023/01/13 15:35:43;;;;;;;2.73;2.53;;;;;;;21.44;32.58;95338.13;6137161;28;107024;-78